sensor_id;sensor_type;location;lat;lon;timestamp;P1;P2;P0
65012;PMS5003;51715;39.432;-77.518;2023-01-01T00:00:44;14;14;
65012;PMS5003;51715;39.432;-77.518;2023-01-01T00:03:13;13;13;
65012;PMS5003;51715;39.432;-77.518;2023-01-01T00:05:41;19;16;
65012;PMS5003;51715;39.432;-77.518;2023-01-01T00:08:08;14;13;
65012;PMS5003;51715;39.432;-77.518;2023-01-01T00:10:37;12;12;
65012;PMS5003;51715;39.432;-77.518;2023-01-01T00:13:05;14;13;
65012;PMS5003;51715;39.432;-77.518;2023-01-01T00:15:34;19;17;
65012;PMS5003;51715;39.432;-77.518;2023-01-01T00:18:03;14;14;
65012;PMS5003;51715;39.432;-77.518;2023-01-01T00:20:33;14;14;
65012;PMS5003;51715;39.432;-77.518;2023-01-01T00:23:01;12;11;
65012;PMS5003;51715;39.432;-77.518;2023-01-01T00:25:29;12;12;
65012;PMS5003;51715;39.432;-77.518;2023-01-01T00:27:58;13;13;
65012;PMS5003;51715;39.432;-77.518;2023-01-01T00:30:27;25;22;
65012;PMS5003;51715;39.432;-77.518;2023-01-01T00:32:54;16;14;
65012;PMS5003;51715;39.432;-77.518;2023-01-01T00:35:23;16;14;
65012;PMS5003;51715;39.432;-77.518;2023-01-01T00:37:53;13;13;
65012;PMS5003;51715;39.432;-77.518;2023-01-01T00:40:23;17;17;
65012;PMS5003;51715;39.432;-77.518;2023-01-01T00:42:50;14;13;
65012;PMS5003;51715;39.432;-77.518;2023-01-01T00:45:19;12;11;
65012;PMS5003;51715;39.432;-77.518;2023-01-01T00:47:48;12;12;
65012;PMS5003;51715;39.432;-77.518;2023-01-01T00:50:18;11;10;
65012;PMS5003;51715;39.432;-77.518;2023-01-01T00:52:48;10;10;
65012;PMS5003;51715;39.432;-77.518;2023-01-01T00:55:17;14;10;
65012;PMS5003;51715;39.432;-77.518;2023-01-01T00:57:46;9;9;
65012;PMS5003;51715;39.432;-77.518;2023-01-01T01:00:15;7;6;
65012;PMS5003;51715;39.432;-77.518;2023-01-01T01:02:43;4;4;
65012;PMS5003;51715;39.432;-77.518;2023-01-01T01:05:11;7;6;
65012;PMS5003;51715;39.432;-77.518;2023-01-01T01:07:39;9;9;
65012;PMS5003;51715;39.432;-77.518;2023-01-01T01:10:08;11;11;
65012;PMS5003;51715;39.432;-77.518;2023-01-01T01:12:37;16;14;
65012;PMS5003;51715;39.432;-77.518;2023-01-01T01:15:05;10;10;
65012;PMS5003;51715;39.432;-77.518;2023-01-01T01:17:35;7;7;
65012;PMS5003;51715;39.432;-77.518;2023-01-01T01:20:04;5;5;
65012;PMS5003;51715;39.432;-77.518;2023-01-01T01:22:33;6;6;
65012;PMS5003;51715;39.432;-77.518;2023-01-01T01:25:02;6;5;
65012;PMS5003;51715;39.432;-77.518;2023-01-01T01:27:31;8;8;
65012;PMS5003;51715;39.432;-77.518;2023-01-01T01:30:00;5;5;
65012;PMS5003;51715;39.432;-77.518;2023-01-01T01:32:29;6;6;
65012;PMS5003;51715;39.432;-77.518;2023-01-01T01:34:56;7;6;
65012;PMS5003;51715;39.432;-77.518;2023-01-01T01:37:24;4;4;
65012;PMS5003;51715;39.432;-77.518;2023-01-01T01:39:52;12;11;
65012;PMS5003;51715;39.432;-77.518;2023-01-01T01:42:21;45;35;
65012;PMS5003;51715;39.432;-77.518;2023-01-01T01:44:50;55;47;
65012;PMS5003;51715;39.432;-77.518;2023-01-01T01:47:24;41;38;
65012;PMS5003;51715;39.432;-77.518;2023-01-01T01:49:58;47;42;
65012;PMS5003;51715;39.432;-77.518;2023-01-01T01:52:33;34;31;
65012;PMS5003;51715;39.432;-77.518;2023-01-01T01:55:06;38;33;
65012;PMS5003;51715;39.432;-77.518;2023-01-01T01:57:35;24;23;
65012;PMS5003;51715;39.432;-77.518;2023-01-01T02:00:05;20;20;
65012;PMS5003;51715;39.432;-77.518;2023-01-01T02:02:36;19;19;
65012;PMS5003;51715;39.432;-77.518;2023-01-01T02:05:10;22;21;
65012;PMS5003;51715;39.432;-77.518;2023-01-01T02:07:38;18;17;
65012;PMS5003;51715;39.432;-77.518;2023-01-01T02:10:07;17;17;
65012;PMS5003;51715;39.432;-77.518;2023-01-01T02:12:36;14;14;
65012;PMS5003;51715;39.432;-77.518;2023-01-01T02:15:05;10;10;
65012;PMS5003;51715;39.432;-77.518;2023-01-01T02:17:39;12;12;
65012;PMS5003;51715;39.432;-77.518;2023-01-01T02:20:22;14;14;
65012;PMS5003;51715;39.432;-77.518;2023-01-01T02:23:21;11;11;
65012;PMS5003;51715;39.432;-77.518;2023-01-01T02:26:04;14;14;
65012;PMS5003;51715;39.432;-77.518;2023-01-01T02:29:47;12;11;
65012;PMS5003;51715;39.432;-77.518;2023-01-01T02:32:21;11;11;
65012;PMS5003;51715;39.432;-77.518;2023-01-01T02:34:56;9;9;
65012;PMS5003;51715;39.432;-77.518;2023-01-01T02:37:27;8;8;
65012;PMS5003;51715;39.432;-77.518;2023-01-01T02:39:57;10;9;
65012;PMS5003;51715;39.432;-77.518;2023-01-01T02:42:28;10;9;
65012;PMS5003;51715;39.432;-77.518;2023-01-01T02:44:56;11;11;
65012;PMS5003;51715;39.432;-77.518;2023-01-01T02:47:26;12;11;
65012;PMS5003;51715;39.432;-77.518;2023-01-01T02:49:56;10;10;
65012;PMS5003;51715;39.432;-77.518;2023-01-01T02:52:35;8;8;
65012;PMS5003;51715;39.432;-77.518;2023-01-01T02:55:21;7;6;
65012;PMS5003;51715;39.432;-77.518;2023-01-01T02:57:58;8;8;
65012;PMS5003;51715;39.432;-77.518;2023-01-01T03:00:33;6;5;
65012;PMS5003;51715;39.432;-77.518;2023-01-01T03:03:07;5;5;
65012;PMS5003;51715;39.432;-77.518;2023-01-01T03:05:46;10;10;
65012;PMS5003;51715;39.432;-77.518;2023-01-01T03:08:23;6;6;
65012;PMS5003;51715;39.432;-77.518;2023-01-01T03:10:57;4;4;
65012;PMS5003;51715;39.432;-77.518;2023-01-01T03:13:34;7;6;
65012;PMS5003;51715;39.432;-77.518;2023-01-01T03:16:08;7;6;
65012;PMS5003;51715;39.432;-77.518;2023-01-01T03:18:43;6;6;
65012;PMS5003;51715;39.432;-77.518;2023-01-01T03:21:18;8;7;
65012;PMS5003;51715;39.432;-77.518;2023-01-01T03:23:49;9;9;
65012;PMS5003;51715;39.432;-77.518;2023-01-01T03:26:19;9;8;
65012;PMS5003;51715;39.432;-77.518;2023-01-01T03:28:52;7;7;
65012;PMS5003;51715;39.432;-77.518;2023-01-01T03:31:24;6;6;
65012;PMS5003;51715;39.432;-77.518;2023-01-01T03:33:54;6;6;
65012;PMS5003;51715;39.432;-77.518;2023-01-01T03:36:27;8;7;
65012;PMS5003;51715;39.432;-77.518;2023-01-01T03:39:01;7;6;
65012;PMS5003;51715;39.432;-77.518;2023-01-01T03:41:33;4;4;
65012;PMS5003;51715;39.432;-77.518;2023-01-01T03:44:06;6;6;
65012;PMS5003;51715;39.432;-77.518;2023-01-01T03:46:38;5;5;
65012;PMS5003;51715;39.432;-77.518;2023-01-01T03:49:08;4;4;
65012;PMS5003;51715;39.432;-77.518;2023-01-01T03:51:42;3;3;
65012;PMS5003;51715;39.432;-77.518;2023-01-01T03:54:24;4;4;
65012;PMS5003;51715;39.432;-77.518;2023-01-01T03:57:04;6;5;
65012;PMS5003;51715;39.432;-77.518;2023-01-01T03:59:39;3;3;
65012;PMS5003;51715;39.432;-77.518;2023-01-01T04:02:17;4;4;
65012;PMS5003;51715;39.432;-77.518;2023-01-01T04:04:48;2;2;
65012;PMS5003;51715;39.432;-77.518;2023-01-01T04:07:16;4;4;
65012;PMS5003;51715;39.432;-77.518;2023-01-01T04:09:46;6;5;
65012;PMS5003;51715;39.432;-77.518;2023-01-01T04:12:16;5;5;
65012;PMS5003;51715;39.432;-77.518;2023-01-01T04:14:47;2;2;
65012;PMS5003;51715;39.432;-77.518;2023-01-01T04:17:15;2;2;
65012;PMS5003;51715;39.432;-77.518;2023-01-01T04:19:44;2;2;
65012;PMS5003;51715;39.432;-77.518;2023-01-01T04:22:12;2;2;
65012;PMS5003;51715;39.432;-77.518;2023-01-01T04:24:40;3;3;
65012;PMS5003;51715;39.432;-77.518;2023-01-01T04:27:07;1;1;
65012;PMS5003;51715;39.432;-77.518;2023-01-01T04:29:36;2;2;
65012;PMS5003;51715;39.432;-77.518;2023-01-01T04:32:05;4;4;
65012;PMS5003;51715;39.432;-77.518;2023-01-01T04:34:34;3;3;
65012;PMS5003;51715;39.432;-77.518;2023-01-01T04:37:02;5;5;
65012;PMS5003;51715;39.432;-77.518;2023-01-01T04:39:31;4;4;
65012;PMS5003;51715;39.432;-77.518;2023-01-01T04:41:59;3;3;
65012;PMS5003;51715;39.432;-77.518;2023-01-01T04:44:27;4;3;
65012;PMS5003;51715;39.432;-77.518;2023-01-01T04:46:55;1;1;
65012;PMS5003;51715;39.432;-77.518;2023-01-01T04:49:23;7;7;
65012;PMS5003;51715;39.432;-77.518;2023-01-01T04:51:52;7;7;
65012;PMS5003;51715;39.432;-77.518;2023-01-01T04:54:20;8;8;
65012;PMS5003;51715;39.432;-77.518;2023-01-01T04:56:48;8;6;
65012;PMS5003;51715;39.432;-77.518;2023-01-01T04:59:16;4;4;
65012;PMS5003;51715;39.432;-77.518;2023-01-01T05:04:00;5;5;
65012;PMS5003;51715;39.432;-77.518;2023-01-01T05:06:28;8;5;
65012;PMS5003;51715;39.432;-77.518;2023-01-01T05:08:56;6;6;
65012;PMS5003;51715;39.432;-77.518;2023-01-01T05:11:26;13;12;
65012;PMS5003;51715;39.432;-77.518;2023-01-01T05:13:57;10;10;
65012;PMS5003;51715;39.432;-77.518;2023-01-01T05:16:28;14;13;
65012;PMS5003;51715;39.432;-77.518;2023-01-01T05:18:57;9;9;
65012;PMS5003;51715;39.432;-77.518;2023-01-01T05:21:27;11;11;
65012;PMS5003;51715;39.432;-77.518;2023-01-01T05:23:59;7;7;
65012;PMS5003;51715;39.432;-77.518;2023-01-01T05:26:29;8;7;
65012;PMS5003;51715;39.432;-77.518;2023-01-01T05:28:59;12;12;
65012;PMS5003;51715;39.432;-77.518;2023-01-01T05:31:29;9;9;
65012;PMS5003;51715;39.432;-77.518;2023-01-01T05:33:58;8;8;
65012;PMS5003;51715;39.432;-77.518;2023-01-01T05:36:28;11;11;
65012;PMS5003;51715;39.432;-77.518;2023-01-01T05:38:57;11;11;
65012;PMS5003;51715;39.432;-77.518;2023-01-01T05:41:26;7;7;
65012;PMS5003;51715;39.432;-77.518;2023-01-01T05:43:54;9;9;
65012;PMS5003;51715;39.432;-77.518;2023-01-01T05:46:23;12;11;
65012;PMS5003;51715;39.432;-77.518;2023-01-01T05:48:52;10;10;
65012;PMS5003;51715;39.432;-77.518;2023-01-01T05:51:21;7;7;
65012;PMS5003;51715;39.432;-77.518;2023-01-01T05:53:51;6;6;
65012;PMS5003;51715;39.432;-77.518;2023-01-01T05:56:20;4;4;
65012;PMS5003;51715;39.432;-77.518;2023-01-01T05:58:48;9;8;
65012;PMS5003;51715;39.432;-77.518;2023-01-01T06:01:18;11;11;
65012;PMS5003;51715;39.432;-77.518;2023-01-01T06:03:48;7;7;
65012;PMS5003;51715;39.432;-77.518;2023-01-01T06:06:17;12;11;
65012;PMS5003;51715;39.432;-77.518;2023-01-01T06:08:48;10;10;
65012;PMS5003;51715;39.432;-77.518;2023-01-01T06:11:19;12;11;
65012;PMS5003;51715;39.432;-77.518;2023-01-01T06:13:47;11;11;
65012;PMS5003;51715;39.432;-77.518;2023-01-01T06:16:18;10;10;
65012;PMS5003;51715;39.432;-77.518;2023-01-01T06:18:47;12;12;
65012;PMS5003;51715;39.432;-77.518;2023-01-01T06:21:15;11;10;
65012;PMS5003;51715;39.432;-77.518;2023-01-01T06:23:45;12;11;
65012;PMS5003;51715;39.432;-77.518;2023-01-01T06:26:14;11;10;
65012;PMS5003;51715;39.432;-77.518;2023-01-01T06:28:44;10;7;
65012;PMS5003;51715;39.432;-77.518;2023-01-01T06:31:13;12;10;
65012;PMS5003;51715;39.432;-77.518;2023-01-01T06:33:43;10;8;
65012;PMS5003;51715;39.432;-77.518;2023-01-01T06:36:13;13;13;
65012;PMS5003;51715;39.432;-77.518;2023-01-01T06:38:44;11;10;
65012;PMS5003;51715;39.432;-77.518;2023-01-01T06:41:14;10;9;
65012;PMS5003;51715;39.432;-77.518;2023-01-01T06:43:44;10;10;
65012;PMS5003;51715;39.432;-77.518;2023-01-01T06:46:13;13;11;
65012;PMS5003;51715;39.432;-77.518;2023-01-01T06:48:44;15;14;
65012;PMS5003;51715;39.432;-77.518;2023-01-01T06:51:14;13;13;
65012;PMS5003;51715;39.432;-77.518;2023-01-01T06:53:43;10;9;
65012;PMS5003;51715;39.432;-77.518;2023-01-01T06:56:12;15;13;
65012;PMS5003;51715;39.432;-77.518;2023-01-01T06:58:40;13;13;
65012;PMS5003;51715;39.432;-77.518;2023-01-01T07:01:08;11;11;
65012;PMS5003;51715;39.432;-77.518;2023-01-01T07:03:39;8;8;
65012;PMS5003;51715;39.432;-77.518;2023-01-01T07:06:08;9;9;
65012;PMS5003;51715;39.432;-77.518;2023-01-01T07:08:37;9;9;
65012;PMS5003;51715;39.432;-77.518;2023-01-01T07:11:07;13;11;
65012;PMS5003;51715;39.432;-77.518;2023-01-01T07:13:35;10;10;
65012;PMS5003;51715;39.432;-77.518;2023-01-01T07:16:03;9;9;
65012;PMS5003;51715;39.432;-77.518;2023-01-01T07:18:32;9;9;
65012;PMS5003;51715;39.432;-77.518;2023-01-01T07:21:01;12;11;
65012;PMS5003;51715;39.432;-77.518;2023-01-01T07:23:30;9;9;
65012;PMS5003;51715;39.432;-77.518;2023-01-01T07:26:00;8;8;
65012;PMS5003;51715;39.432;-77.518;2023-01-01T07:28:29;11;10;
65012;PMS5003;51715;39.432;-77.518;2023-01-01T07:30:57;12;12;
65012;PMS5003;51715;39.432;-77.518;2023-01-01T07:33:26;9;9;
65012;PMS5003;51715;39.432;-77.518;2023-01-01T07:35:54;9;9;
65012;PMS5003;51715;39.432;-77.518;2023-01-01T07:38:22;11;10;
65012;PMS5003;51715;39.432;-77.518;2023-01-01T07:40:49;9;9;
65012;PMS5003;51715;39.432;-77.518;2023-01-01T07:43:18;8;7;
65012;PMS5003;51715;39.432;-77.518;2023-01-01T07:45:46;8;7;
65012;PMS5003;51715;39.432;-77.518;2023-01-01T07:48:13;11;9;
65012;PMS5003;51715;39.432;-77.518;2023-01-01T07:50:42;8;8;
65012;PMS5003;51715;39.432;-77.518;2023-01-01T07:53:10;7;7;
65012;PMS5003;51715;39.432;-77.518;2023-01-01T07:55:39;7;7;
65012;PMS5003;51715;39.432;-77.518;2023-01-01T07:58:07;9;9;
65012;PMS5003;51715;39.432;-77.518;2023-01-01T08:00:37;9;9;
65012;PMS5003;51715;39.432;-77.518;2023-01-01T08:03:05;6;6;
65012;PMS5003;51715;39.432;-77.518;2023-01-01T08:05:33;10;8;
65012;PMS5003;51715;39.432;-77.518;2023-01-01T08:08:04;9;9;
65012;PMS5003;51715;39.432;-77.518;2023-01-01T08:10:32;7;7;
65012;PMS5003;51715;39.432;-77.518;2023-01-01T08:13:00;7;7;
65012;PMS5003;51715;39.432;-77.518;2023-01-01T08:15:30;7;6;
65012;PMS5003;51715;39.432;-77.518;2023-01-01T08:17:58;6;6;
65012;PMS5003;51715;39.432;-77.518;2023-01-01T08:20:28;7;7;
65012;PMS5003;51715;39.432;-77.518;2023-01-01T08:22:58;5;5;
65012;PMS5003;51715;39.432;-77.518;2023-01-01T08:25:26;7;7;
65012;PMS5003;51715;39.432;-77.518;2023-01-01T08:27:54;5;5;
65012;PMS5003;51715;39.432;-77.518;2023-01-01T08:30:22;4;4;
65012;PMS5003;51715;39.432;-77.518;2023-01-01T08:32:51;3;3;
65012;PMS5003;51715;39.432;-77.518;2023-01-01T08:35:19;4;4;
65012;PMS5003;51715;39.432;-77.518;2023-01-01T08:37:46;3;3;
65012;PMS5003;51715;39.432;-77.518;2023-01-01T08:40:14;4;4;
65012;PMS5003;51715;39.432;-77.518;2023-01-01T08:42:43;5;5;
65012;PMS5003;51715;39.432;-77.518;2023-01-01T08:45:10;4;4;
65012;PMS5003;51715;39.432;-77.518;2023-01-01T08:47:38;5;5;
65012;PMS5003;51715;39.432;-77.518;2023-01-01T08:50:06;6;5;
65012;PMS5003;51715;39.432;-77.518;2023-01-01T08:52:35;4;3;
65012;PMS5003;51715;39.432;-77.518;2023-01-01T08:55:04;5;3;
65012;PMS5003;51715;39.432;-77.518;2023-01-01T08:57:33;6;5;
65012;PMS5003;51715;39.432;-77.518;2023-01-01T09:00:02;5;5;
65012;PMS5003;51715;39.432;-77.518;2023-01-01T09:02:32;1;1;
65012;PMS5003;51715;39.432;-77.518;2023-01-01T09:05:00;4;4;
65012;PMS5003;51715;39.432;-77.518;2023-01-01T09:07:29;4;4;
65012;PMS5003;51715;39.432;-77.518;2023-01-01T09:09:57;2;2;
65012;PMS5003;51715;39.432;-77.518;2023-01-01T09:12:26;6;4;
65012;PMS5003;51715;39.432;-77.518;2023-01-01T09:14:53;5;2;
65012;PMS5003;51715;39.432;-77.518;2023-01-01T09:17:22;3;2;
65012;PMS5003;51715;39.432;-77.518;2023-01-01T09:19:51;4;4;
65012;PMS5003;51715;39.432;-77.518;2023-01-01T09:22:18;3;3;
65012;PMS5003;51715;39.432;-77.518;2023-01-01T09:24:47;5;5;
65012;PMS5003;51715;39.432;-77.518;2023-01-01T09:27:16;3;3;
65012;PMS5003;51715;39.432;-77.518;2023-01-01T09:29:44;5;5;
65012;PMS5003;51715;39.432;-77.518;2023-01-01T09:32:12;3;3;
65012;PMS5003;51715;39.432;-77.518;2023-01-01T09:34:40;4;4;
65012;PMS5003;51715;39.432;-77.518;2023-01-01T09:37:09;4;4;
65012;PMS5003;51715;39.432;-77.518;2023-01-01T09:39:37;3;3;
65012;PMS5003;51715;39.432;-77.518;2023-01-01T09:42:11;4;4;
65012;PMS5003;51715;39.432;-77.518;2023-01-01T09:44:53;3;3;
65012;PMS5003;51715;39.432;-77.518;2023-01-01T09:47:29;4;4;
65012;PMS5003;51715;39.432;-77.518;2023-01-01T09:50:00;3;3;
65012;PMS5003;51715;39.432;-77.518;2023-01-01T09:52:34;3;3;
65012;PMS5003;51715;39.432;-77.518;2023-01-01T09:55:14;3;3;
65012;PMS5003;51715;39.432;-77.518;2023-01-01T09:57:48;4;4;
65012;PMS5003;51715;39.432;-77.518;2023-01-01T10:00:17;2;2;
65012;PMS5003;51715;39.432;-77.518;2023-01-01T10:02:51;3;3;
65012;PMS5003;51715;39.432;-77.518;2023-01-01T10:05:30;4;4;
65012;PMS5003;51715;39.432;-77.518;2023-01-01T10:08:12;5;5;
65012;PMS5003;51715;39.432;-77.518;2023-01-01T10:10:48;4;4;
65012;PMS5003;51715;39.432;-77.518;2023-01-01T10:13:25;2;1;
65012;PMS5003;51715;39.432;-77.518;2023-01-01T10:16:00;4;4;
65012;PMS5003;51715;39.432;-77.518;2023-01-01T10:18:35;3;3;
65012;PMS5003;51715;39.432;-77.518;2023-01-01T10:21:06;4;3;
65012;PMS5003;51715;39.432;-77.518;2023-01-01T10:23:42;3;2;
65012;PMS5003;51715;39.432;-77.518;2023-01-01T10:26:14;4;4;
65012;PMS5003;51715;39.432;-77.518;2023-01-01T10:28:48;5;5;
65012;PMS5003;51715;39.432;-77.518;2023-01-01T10:31:27;2;2;
65012;PMS5003;51715;39.432;-77.518;2023-01-01T10:34:11;3;3;
65012;PMS5003;51715;39.432;-77.518;2023-01-01T10:36:42;5;3;
65012;PMS5003;51715;39.432;-77.518;2023-01-01T10:39:12;3;3;
65012;PMS5003;51715;39.432;-77.518;2023-01-01T10:41:41;3;2;
65012;PMS5003;51715;39.432;-77.518;2023-01-01T10:44:10;2;2;
65012;PMS5003;51715;39.432;-77.518;2023-01-01T10:46:40;4;3;
65012;PMS5003;51715;39.432;-77.518;2023-01-01T10:49:12;5;4;
65012;PMS5003;51715;39.432;-77.518;2023-01-01T10:51:41;3;3;
65012;PMS5003;51715;39.432;-77.518;2023-01-01T10:54:23;3;3;
65012;PMS5003;51715;39.432;-77.518;2023-01-01T10:56:59;4;4;
65012;PMS5003;51715;39.432;-77.518;2023-01-01T10:59:39;2;2;
65012;PMS5003;51715;39.432;-77.518;2023-01-01T11:02:14;3;3;
65012;PMS5003;51715;39.432;-77.518;2023-01-01T11:04:45;2;2;
65012;PMS5003;51715;39.432;-77.518;2023-01-01T11:07:17;2;2;
65012;PMS5003;51715;39.432;-77.518;2023-01-01T11:09:57;4;4;
65012;PMS5003;51715;39.432;-77.518;2023-01-01T11:12:28;2;2;
65012;PMS5003;51715;39.432;-77.518;2023-01-01T11:15:03;3;3;
65012;PMS5003;51715;39.432;-77.518;2023-01-01T11:17:33;3;3;
65012;PMS5003;51715;39.432;-77.518;2023-01-01T11:20:03;3;3;
65012;PMS5003;51715;39.432;-77.518;2023-01-01T11:22:34;3;3;
65012;PMS5003;51715;39.432;-77.518;2023-01-01T11:25:14;4;3;
65012;PMS5003;51715;39.432;-77.518;2023-01-01T11:27:45;2;2;
65012;PMS5003;51715;39.432;-77.518;2023-01-01T11:30:24;2;2;
65012;PMS5003;51715;39.432;-77.518;2023-01-01T11:32:55;3;3;
65012;PMS5003;51715;39.432;-77.518;2023-01-01T11:35:28;3;3;
65012;PMS5003;51715;39.432;-77.518;2023-01-01T11:37:57;4;4;
65012;PMS5003;51715;39.432;-77.518;2023-01-01T11:40:28;3;2;
65012;PMS5003;51715;39.432;-77.518;2023-01-01T11:43:03;3;3;
65012;PMS5003;51715;39.432;-77.518;2023-01-01T11:45:33;3;3;
65012;PMS5003;51715;39.432;-77.518;2023-01-01T11:48:10;2;2;
65012;PMS5003;51715;39.432;-77.518;2023-01-01T11:50:47;3;3;
65012;PMS5003;51715;39.432;-77.518;2023-01-01T11:53:27;4;4;
65012;PMS5003;51715;39.432;-77.518;2023-01-01T11:56:01;4;4;
65012;PMS5003;51715;39.432;-77.518;2023-01-01T11:58:36;2;2;
65012;PMS5003;51715;39.432;-77.518;2023-01-01T12:01:15;3;3;
65012;PMS5003;51715;39.432;-77.518;2023-01-01T12:03:51;2;2;
65012;PMS5003;51715;39.432;-77.518;2023-01-01T12:06:25;3;3;
65012;PMS5003;51715;39.432;-77.518;2023-01-01T12:08:59;4;4;
65012;PMS5003;51715;39.432;-77.518;2023-01-01T12:11:37;3;3;
65012;PMS5003;51715;39.432;-77.518;2023-01-01T12:14:12;3;3;
65012;PMS5003;51715;39.432;-77.518;2023-01-01T12:16:47;4;4;
65012;PMS5003;51715;39.432;-77.518;2023-01-01T12:19:21;3;3;
65012;PMS5003;51715;39.432;-77.518;2023-01-01T12:21:56;4;3;
65012;PMS5003;51715;39.432;-77.518;2023-01-01T12:24:29;3;3;
65012;PMS5003;51715;39.432;-77.518;2023-01-01T12:27:06;4;4;
65012;PMS5003;51715;39.432;-77.518;2023-01-01T12:29:48;2;2;
65012;PMS5003;51715;39.432;-77.518;2023-01-01T12:32:27;2;2;
65012;PMS5003;51715;39.432;-77.518;2023-01-01T12:35:15;1;1;
65012;PMS5003;51715;39.432;-77.518;2023-01-01T12:37:57;3;3;
65012;PMS5003;51715;39.432;-77.518;2023-01-01T12:40:42;3;3;
65012;PMS5003;51715;39.432;-77.518;2023-01-01T12:43:24;3;3;
65012;PMS5003;51715;39.432;-77.518;2023-01-01T12:46:10;3;3;
65012;PMS5003;51715;39.432;-77.518;2023-01-01T12:48:53;1;1;
65012;PMS5003;51715;39.432;-77.518;2023-01-01T12:51:37;4;4;
65012;PMS5003;51715;39.432;-77.518;2023-01-01T12:54:27;4;4;
65012;PMS5003;51715;39.432;-77.518;2023-01-01T12:57:47;3;3;
65012;PMS5003;51715;39.432;-77.518;2023-01-01T13:00:18;2;2;
65012;PMS5003;51715;39.432;-77.518;2023-01-01T13:06:44;6;5;
65012;PMS5003;51715;39.432;-77.518;2023-01-01T13:09:17;3;3;
65012;PMS5003;51715;39.432;-77.518;2023-01-01T13:11:49;4;4;
65012;PMS5003;51715;39.432;-77.518;2023-01-01T13:14:20;3;3;
65012;PMS5003;51715;39.432;-77.518;2023-01-01T13:16:50;3;2;
65012;PMS5003;51715;39.432;-77.518;2023-01-01T13:19:23;2;2;
65012;PMS5003;51715;39.432;-77.518;2023-01-01T13:22:26;3;3;
65012;PMS5003;51715;39.432;-77.518;2023-01-01T13:25:14;5;4;
65012;PMS5003;51715;39.432;-77.518;2023-01-01T13:28:03;3;3;
65012;PMS5003;51715;39.432;-77.518;2023-01-01T13:30:46;2;2;
65012;PMS5003;51715;39.432;-77.518;2023-01-01T13:33:16;2;2;
65012;PMS5003;51715;39.432;-77.518;2023-01-01T13:35:47;2;2;
65012;PMS5003;51715;39.432;-77.518;2023-01-01T13:38:57;3;3;
65012;PMS5003;51715;39.432;-77.518;2023-01-01T13:41:38;1;1;
65012;PMS5003;51715;39.432;-77.518;2023-01-01T13:44:12;1;1;
65012;PMS5003;51715;39.432;-77.518;2023-01-01T13:46:49;1;1;
65012;PMS5003;51715;39.432;-77.518;2023-01-01T13:49:32;1;1;
65012;PMS5003;51715;39.432;-77.518;2023-01-01T13:52:16;3;3;
65012;PMS5003;51715;39.432;-77.518;2023-01-01T13:58:30;4;4;
65012;PMS5003;51715;39.432;-77.518;2023-01-01T14:01:29;2;2;
65012;PMS5003;51715;39.432;-77.518;2023-01-01T14:04:07;3;3;
65012;PMS5003;51715;39.432;-77.518;2023-01-01T14:06:43;1;0;
65012;PMS5003;51715;39.432;-77.518;2023-01-01T14:09:18;3;3;
65012;PMS5003;51715;39.432;-77.518;2023-01-01T14:11:47;2;2;
65012;PMS5003;51715;39.432;-77.518;2023-01-01T14:14:18;3;3;
65012;PMS5003;51715;39.432;-77.518;2023-01-01T14:16:50;2;2;
65012;PMS5003;51715;39.432;-77.518;2023-01-01T14:19:20;4;4;
65012;PMS5003;51715;39.432;-77.518;2023-01-01T14:21:50;2;2;
65012;PMS5003;51715;39.432;-77.518;2023-01-01T14:24:19;3;3;
65012;PMS5003;51715;39.432;-77.518;2023-01-01T14:26:49;3;3;
65012;PMS5003;51715;39.432;-77.518;2023-01-01T14:29:20;4;4;
65012;PMS5003;51715;39.432;-77.518;2023-01-01T14:31:52;4;3;
65012;PMS5003;51715;39.432;-77.518;2023-01-01T14:34:25;3;3;
65012;PMS5003;51715;39.432;-77.518;2023-01-01T14:36:55;4;4;
65012;PMS5003;51715;39.432;-77.518;2023-01-01T14:39:26;2;2;
65012;PMS5003;51715;39.432;-77.518;2023-01-01T14:41:56;3;3;
65012;PMS5003;51715;39.432;-77.518;2023-01-01T14:44:29;2;2;
65012;PMS5003;51715;39.432;-77.518;2023-01-01T14:47:19;2;2;
65012;PMS5003;51715;39.432;-77.518;2023-01-01T14:49:51;3;3;
65012;PMS5003;51715;39.432;-77.518;2023-01-01T14:52:23;3;3;
65012;PMS5003;51715;39.432;-77.518;2023-01-01T14:54:52;2;2;
65012;PMS5003;51715;39.432;-77.518;2023-01-01T14:57:23;3;2;
65012;PMS5003;51715;39.432;-77.518;2023-01-01T14:59:54;3;2;
65012;PMS5003;51715;39.432;-77.518;2023-01-01T15:02:23;2;2;
65012;PMS5003;51715;39.432;-77.518;2023-01-01T15:04:53;1;1;
65012;PMS5003;51715;39.432;-77.518;2023-01-01T15:07:23;2;2;
65012;PMS5003;51715;39.432;-77.518;2023-01-01T15:09:54;3;3;
65012;PMS5003;51715;39.432;-77.518;2023-01-01T15:12:24;1;1;
65012;PMS5003;51715;39.432;-77.518;2023-01-01T15:14:53;2;1;
65012;PMS5003;51715;39.432;-77.518;2023-01-01T15:17:23;1;1;
65012;PMS5003;51715;39.432;-77.518;2023-01-01T15:20:02;2;2;
65012;PMS5003;51715;39.432;-77.518;2023-01-01T15:22:45;3;3;
65012;PMS5003;51715;39.432;-77.518;2023-01-01T15:25:15;1;1;
65012;PMS5003;51715;39.432;-77.518;2023-01-01T15:27:47;4;4;
65012;PMS5003;51715;39.432;-77.518;2023-01-01T15:30:21;2;2;
65012;PMS5003;51715;39.432;-77.518;2023-01-01T15:32:52;2;2;
65012;PMS5003;51715;39.432;-77.518;2023-01-01T15:35:24;3;2;
65012;PMS5003;51715;39.432;-77.518;2023-01-01T15:37:56;2;2;
65012;PMS5003;51715;39.432;-77.518;2023-01-01T15:40:30;0;0;
65012;PMS5003;51715;39.432;-77.518;2023-01-01T15:43:10;1;1;
65012;PMS5003;51715;39.432;-77.518;2023-01-01T15:45:50;2;1;
65012;PMS5003;51715;39.432;-77.518;2023-01-01T15:48:24;3;3;
65012;PMS5003;51715;39.432;-77.518;2023-01-01T15:50:58;1;1;
65012;PMS5003;51715;39.432;-77.518;2023-01-01T15:53:34;0;0;
65012;PMS5003;51715;39.432;-77.518;2023-01-01T15:56:12;2;2;
65012;PMS5003;51715;39.432;-77.518;2023-01-01T15:58:42;2;2;
65012;PMS5003;51715;39.432;-77.518;2023-01-01T16:01:18;2;1;
65012;PMS5003;51715;39.432;-77.518;2023-01-01T16:03:49;3;2;
65012;PMS5003;51715;39.432;-77.518;2023-01-01T16:06:23;1;1;
65012;PMS5003;51715;39.432;-77.518;2023-01-01T16:08:52;2;2;
65012;PMS5003;51715;39.432;-77.518;2023-01-01T16:11:21;3;3;
65012;PMS5003;51715;39.432;-77.518;2023-01-01T16:13:49;1;1;
65012;PMS5003;51715;39.432;-77.518;2023-01-01T16:16:21;2;2;
65012;PMS5003;51715;39.432;-77.518;2023-01-01T16:18:52;2;2;
65012;PMS5003;51715;39.432;-77.518;2023-01-01T16:21:23;3;1;
65012;PMS5003;51715;39.432;-77.518;2023-01-01T16:23:53;2;2;
65012;PMS5003;51715;39.432;-77.518;2023-01-01T16:26:22;2;2;
65012;PMS5003;51715;39.432;-77.518;2023-01-01T16:28:50;1;1;
65012;PMS5003;51715;39.432;-77.518;2023-01-01T16:31:19;1;1;
65012;PMS5003;51715;39.432;-77.518;2023-01-01T16:33:51;1;1;
65012;PMS5003;51715;39.432;-77.518;2023-01-01T16:36:21;3;2;
65012;PMS5003;51715;39.432;-77.518;2023-01-01T16:38:49;2;2;
65012;PMS5003;51715;39.432;-77.518;2023-01-01T16:41:17;1;1;
65012;PMS5003;51715;39.432;-77.518;2023-01-01T16:43:46;1;1;
65012;PMS5003;51715;39.432;-77.518;2023-01-01T16:46:15;2;2;
65012;PMS5003;51715;39.432;-77.518;2023-01-01T16:48:44;1;1;
65012;PMS5003;51715;39.432;-77.518;2023-01-01T16:51:15;1;1;
65012;PMS5003;51715;39.432;-77.518;2023-01-01T16:53:45;2;2;